Time;durP1;ratioP1;P1;durP2;ratioP2;P2;SDS_P1;SDS_P2;PMS_P1;PMS_P2;Temp;Humidity;BMP_temperature;BMP_pressure;BME280_temperature;BME280_humidity;BME280_pressure;Samples;Min_cycle;Max_cycle;Signal;HPM_P1;HPM_P2
2022/03/21 00:00:40;;;;;;;11.20;8.60;;;12.60;61.70;;;;;;5074648;28;20255;-76
2022/03/21 00:03:10;;;;;;;9.15;7.82;;;12.50;62.10;;;;;;5093244;28;20230;-77
2022/03/21 00:05:36;;;;;;;9.57;7.78;;;12.50;63.10;;;;;;5076894;28;20195;-76
2022/03/21 00:08:02;;;;;;;9.32;7.50;;;12.50;62.70;;;;;;5074602;28;20183;-76
2022/03/21 00:10:30;;;;;;;9.90;7.70;;;12.40;62.50;;;;;;5074514;28;20244;-79
2022/03/21 00:12:56;;;;;;;15.70;8.05;;;12.30;62.80;;;;;;5092780;28;20605;-79
2022/03/21 00:15:23;;;;;;;10.40;7.03;;;12.30;63.10;;;;;;5092674;28;20215;-79
2022/03/21 00:17:49;;;;;;;9.13;7.55;;;12.20;63.80;;;;;;5074535;28;20623;-76
2022/03/21 00:20:15;;;;;;;11.65;8.30;;;12.20;64.60;;;;;;5092119;28;20246;-76
2022/03/21 00:22:42;;;;;;;9.80;7.35;;;12.10;65.30;;;;;;5074444;28;20175;-76
2022/03/21 00:25:09;;;;;;;12.05;7.85;;;12.10;65.30;;;;;;5092538;28;20183;-76
2022/03/21 00:27:36;;;;;;;8.75;7.20;;;12.00;65.70;;;;;;5092281;28;20206;-76
2022/03/21 00:30:05;;;;;;;14.82;7.88;;;11.90;66.10;;;;;;5040802;28;20164;-76
2022/03/21 00:32:32;;;;;;;10.20;7.90;;;11.90;66.20;;;;;;5074207;28;20217;-76
2022/03/21 00:34:57;;;;;;;9.90;7.75;;;11.80;66.70;;;;;;5074333;28;20270;-76
2022/03/21 00:37:23;;;;;;;13.43;7.90;;;11.80;67.00;;;;;;5092243;28;20195;-76
2022/03/21 00:39:51;;;;;;;10.03;8.37;;;11.70;67.60;;;;;;5073976;28;20652;-76
2022/03/21 00:42:17;;;;;;;8.75;7.60;;;11.70;68.10;;;;;;5094411;28;20599;-76
2022/03/21 00:44:43;;;;;;;9.85;7.57;;;11.70;68.50;;;;;;5092364;28;20183;-76
2022/03/21 00:47:08;;;;;;;9.37;7.93;;;11.70;69.00;;;;;;5091947;28;20196;-76
2022/03/21 00:49:34;;;;;;;11.50;9.47;;;11.70;69.90;;;;;;5092205;28;20562;-76
2022/03/21 00:52:00;;;;;;;10.10;8.90;;;11.70;70.60;;;;;;5073901;28;20183;-76
2022/03/21 00:54:26;;;;;;;11.98;7.82;;;11.70;71.00;;;;;;5073738;28;20227;-75
2022/03/21 00:56:53;;;;;;;9.52;6.85;;;11.60;71.50;;;;;;5073869;28;20200;-76
2022/03/21 00:59:19;;;;;;;9.18;7.43;;;11.60;71.90;;;;;;5057150;28;20171;-75
2022/03/21 01:01:46;;;;;;;10.93;7.97;;;11.60;72.20;;;;;;5073467;28;20326;-76
2022/03/21 01:04:11;;;;;;;8.17;6.87;;;11.60;72.80;;;;;;5077506;28;20270;-76
2022/03/21 01:06:38;;;;;;;10.90;7.27;;;11.60;73.30;;;;;;5095707;28;20685;-76
2022/03/21 01:09:04;;;;;;;11.05;8.25;;;11.60;74.00;;;;;;5073803;28;20167;-76
2022/03/21 01:11:30;;;;;;;10.47;7.37;;;11.60;74.70;;;;;;5055011;28;20663;-75
2022/03/21 01:13:56;;;;;;;9.70;7.33;;;11.70;75.30;;;;;;5075464;28;20581;-75
2022/03/21 01:16:21;;;;;;;8.50;7.10;;;11.70;75.30;;;;;;5076066;28;20177;-76
2022/03/21 01:18:47;;;;;;;8.97;7.50;;;11.70;75.50;;;;;;5059180;28;20222;-75
2022/03/21 01:21:13;;;;;;;10.03;7.87;;;11.70;76.30;;;;;;5075571;28;20187;-75
2022/03/21 01:23:39;;;;;;;9.30;8.17;;;11.70;77.00;;;;;;5057858;28;20639;-76
2022/03/21 01:26:05;;;;;;;11.15;8.27;;;11.70;77.70;;;;;;5058119;28;20210;-76
2022/03/21 01:28:31;;;;;;;11.30;9.03;;;11.70;78.30;;;;;;5075553;28;20160;-76
2022/03/21 01:30:57;;;;;;;10.30;8.20;;;11.70;78.90;;;;;;5074751;28;20666;-76
2022/03/21 01:33:22;;;;;;;10.53;8.10;;;11.70;79.60;;;;;;5075041;28;20172;-75
2022/03/21 01:35:48;;;;;;;9.60;8.60;;;11.70;80.00;;;;;;5074952;28;20199;-75
2022/03/21 01:38:14;;;;;;;11.00;7.93;;;11.70;80.40;;;;;;5057277;28;20179;-76
2022/03/21 01:40:39;;;;;;;12.03;8.53;;;11.70;80.90;;;;;;5075104;28;20563;-75
2022/03/21 01:43:10;;;;;;;12.03;8.20;;;11.70;82.20;;;;;;5075004;28;20652;-75
2022/03/21 01:45:35;;;;;;;13.63;8.63;;;11.80;82.20;;;;;;5056901;28;20578;-76
2022/03/21 01:48:01;;;;;;;9.00;7.37;;;11.80;83.00;;;;;;5057016;28;20210;-75
2022/03/21 01:50:27;;;;;;;10.50;8.93;;;11.80;82.40;;;;;;5074330;28;20302;-75
2022/03/21 01:55:43;;;;;;;11.83;8.97;;;11.80;82.80;;;;;;5075102;28;20655;-75
2022/03/21 01:55:44;;;;;;;12.50;9.02;;;11.80;83.20;;;;;;5077880;28;20239;-75
2022/03/21 01:58:16;;;;;;;11.05;8.40;;;11.80;83.50;;;;;;5074813;28;20708;-76
2022/03/21 02:00:43;;;;;;;11.75;9.10;;;11.80;84.00;;;;;;5074252;28;20215;-75
2022/03/21 02:03:09;;;;;;;11.48;9.18;;;11.80;84.20;;;;;;5074748;28;20180;-76
2022/03/21 02:05:38;;;;;;;12.25;10.05;;;11.80;84.90;;;;;;5074355;28;20617;-75
2022/03/21 02:08:04;;;;;;;10.80;9.43;;;11.80;85.40;;;;;;5056750;28;20175;-75
2022/03/21 02:10:31;;;;;;;14.93;9.70;;;11.80;85.70;;;;;;5074181;28;20168;-75
2022/03/21 02:12:57;;;;;;;11.43;8.60;;;11.80;86.10;;;;;;5056662;28;20608;-76
2022/03/21 02:15:24;;;;;;;9.95;8.82;;;11.80;86.50;;;;;;5073109;28;20269;-75
2022/03/21 02:17:56;;;;;;;13.15;9.70;;;11.80;87.10;;;;;;5074589;28;20168;-75
2022/03/21 02:20:23;;;;;;;12.30;9.80;;;11.80;87.70;;;;;;5073991;28;20160;-76
2022/03/21 02:22:58;;;;;;;11.10;9.18;;;11.80;88.10;;;;;;5074493;28;20612;-77
2022/03/21 02:25:24;;;;;;;14.63;11.52;;;11.80;88.50;;;;;;5055447;28;20727;-75
2022/03/21 02:27:51;;;;;;;14.00;10.30;;;11.60;92.10;;;;;;5074522;28;20501;-75
2022/03/21 02:30:17;;;;;;;11.95;10.55;;;11.60;91.30;;;;;;5056106;28;20175;-76
2022/03/21 02:32:45;;;;;;;10.70;9.60;;;11.60;91.10;;;;;;5041594;28;20203;-75
2022/03/21 02:35:13;;;;;;;10.20;9.02;;;11.60;91.10;;;;;;5056301;28;20583;-76
2022/03/21 02:37:40;;;;;;;11.98;10.07;;;11.60;91.10;;;;;;5074243;28;20174;-76
2022/03/21 02:40:08;;;;;;;12.77;9.07;;;11.50;91.20;;;;;;5073631;28;20168;-75
2022/03/21 02:42:34;;;;;;;9.57;8.57;;;11.50;91.50;;;;;;5074115;28;20584;-76
2022/03/21 02:45:00;;;;;;;11.33;9.20;;;11.40;91.60;;;;;;5074070;28;20241;-76
2022/03/21 02:47:26;;;;;;;11.00;7.78;;;11.30;91.60;;;;;;5074072;28;20200;-76
2022/03/21 02:49:54;;;;;;;10.30;8.20;;;11.30;91.80;;;;;;5055755;28;20180;-76
2022/03/21 02:52:22;;;;;;;10.38;8.77;;;11.20;92.10;;;;;;5074146;28;20627;-76
2022/03/21 02:54:48;;;;;;;12.82;9.30;;;11.10;92.30;;;;;;5056088;28;20204;-76
2022/03/21 02:57:13;;;;;;;12.00;9.20;;;11.00;92.50;;;;;;5073810;28;20222;-75
2022/03/21 02:59:39;;;;;;;10.43;9.33;;;10.90;92.90;;;;;;5073326;28;20175;-76
2022/03/21 03:02:07;;;;;;;14.30;9.50;;;10.80;93.10;;;;;;5055519;28;20659;-75
2022/03/21 03:04:32;;;;;;;14.30;10.43;;;10.80;93.40;;;;;;5055491;28;20592;-75
2022/03/21 03:06:58;;;;;;;11.20;8.83;;;10.70;93.80;;;;;;5073648;28;20284;-76
2022/03/21 03:09:24;;;;;;;11.73;10.57;;;10.60;94.20;;;;;;5076454;28;20207;-75
2022/03/21 03:11:50;;;;;;;10.73;9.63;;;10.60;94.60;;;;;;5073012;28;20172;-75
2022/03/21 03:14:16;;;;;;;11.30;8.50;;;10.60;94.90;;;;;;5073459;28;20196;-75
2022/03/21 03:16:42;;;;;;;10.38;8.07;;;10.50;95.20;;;;;;5071705;28;20156;-76
2022/03/21 03:19:08;;;;;;;13.67;9.53;;;10.60;95.50;;;;;;5038898;28;20222;-75
2022/03/21 03:21:37;;;;;;;11.73;9.00;;;10.60;95.80;;;;;;5073107;28;20891;-75
2022/03/21 03:24:04;;;;;;;11.90;8.88;;;10.60;96.20;;;;;;5055309;28;20211;-76
2022/03/21 03:26:30;;;;;;;17.17;10.82;;;10.60;96.40;;;;;;5072993;28;20238;-75
2022/03/21 03:28:56;;;;;;;12.35;9.25;;;10.60;96.70;;;;;;5055318;28;20173;-76
2022/03/21 03:31:22;;;;;;;15.87;10.10;;;10.60;97.00;;;;;;5072723;28;20495;-75
2022/03/21 03:33:48;;;;;;;14.27;9.70;;;10.60;97.30;;;;;;5055125;28;20212;-75
2022/03/21 03:36:15;;;;;;;11.57;8.75;;;10.60;97.50;;;;;;5072696;28;20589;-74
2022/03/21 03:38:43;;;;;;;11.00;8.75;;;10.60;97.70;;;;;;5072816;28;20160;-75
2022/03/21 03:41:09;;;;;;;13.18;9.35;;;10.60;97.80;;;;;;5072461;28;20192;-76
2022/03/21 03:43:36;;;;;;;14.60;10.10;;;10.60;98.00;;;;;;5072599;28;20165;-76
2022/03/21 03:46:02;;;;;;;13.20;9.50;;;10.60;98.10;;;;;;5076314;28;20189;-75
2022/03/21 03:48:28;;;;;;;13.60;9.50;;;10.60;98.40;;;;;;5054934;28;20225;-75
2022/03/21 03:50:54;;;;;;;10.05;8.88;;;10.60;98.60;;;;;;5072241;28;20161;-75
2022/03/21 03:53:20;;;;;;;13.17;8.97;;;10.50;98.70;;;;;;5072563;28;20173;-75
2022/03/21 03:55:46;;;;;;;12.57;8.33;;;10.50;98.90;;;;;;5054168;28;20626;-75
2022/03/21 03:58:13;;;;;;;12.00;10.15;;;10.50;99.10;;;;;;5037908;28;21058;-75
2022/03/21 04:00:38;;;;;;;12.65;9.60;;;10.50;99.30;;;;;;5072087;28;20651;-76
2022/03/21 04:05:49;;;;;;;12.25;9.10;;;10.50;99.70;;;;;;5072197;28;20288;-76
2022/03/21 04:08:15;;;;;;;10.87;9.10;;;10.60;99.80;;;;;;5072614;28;20520;-75
2022/03/21 04:10:41;;;;;;;13.57;8.90;;;10.60;99.90;;;;;;5071990;28;20573;-75
2022/03/21 04:13:07;;;;;;;11.67;9.77;;;10.60;99.90;;;;;;5054610;28;20560;-75
2022/03/21 04:15:33;;;;;;;12.40;9.40;;;10.60;99.90;;;;;;5072306;28;20195;-75
2022/03/21 04:18:00;;;;;;;12.30;9.97;;;10.60;99.90;;;;;;5037910;28;20577;-75
2022/03/21 04:20:31;;;;;;;12.32;8.48;;;10.60;99.90;;;;;;5071695;28;20555;-75
2022/03/21 04:23:00;;;;;;;11.27;9.80;;;10.50;99.90;;;;;;5074794;28;20183;-75
2022/03/21 04:25:27;;;;;;;13.10;9.60;;;10.50;99.90;;;;;;5055348;28;20271;-75
2022/03/21 04:27:53;;;;;;;10.95;8.90;;;10.50;99.90;;;;;;5071969;28;20214;-75
2022/03/21 04:30:20;;;;;;;16.77;10.53;;;10.50;99.90;;;;;;5053561;28;20168;-76
2022/03/21 04:32:45;;;;;;;11.63;9.50;;;10.50;99.90;;;;;;5053929;28;20566;-75
2022/03/21 04:35:11;;;;;;;10.70;9.63;;;10.50;99.90;;;;;;5071848;28;20230;-76
2022/03/21 04:37:38;;;;;;;10.63;9.53;;;10.40;99.90;;;;;;5071287;28;20199;-75
2022/03/21 04:40:07;;;;;;;9.95;8.32;;;10.40;99.90;;;;;;5071627;28;20661;-75
2022/03/21 04:42:34;;;;;;;13.85;9.48;;;10.40;99.90;;;;;;5071935;28;20176;-75
2022/03/21 04:44:59;;;;;;;13.15;9.93;;;10.30;99.90;;;;;;5071630;28;20690;-76
2022/03/21 04:47:25;;;;;;;12.53;10.30;;;10.30;99.90;;;;;;5037114;28;20239;-76
2022/03/21 04:49:51;;;;;;;13.27;8.97;;;10.20;99.90;;;;;;5072127;28;20279;-76
2022/03/21 04:52:17;;;;;;;13.27;9.77;;;10.20;99.90;;;;;;5054365;28;20624;-76
2022/03/21 04:54:42;;;;;;;13.23;10.50;;;10.10;99.90;;;;;;5072052;28;20200;-76
2022/03/21 04:57:08;;;;;;;13.90;11.40;;;10.10;99.90;;;;;;5072193;28;20521;-76
2022/03/21 04:59:35;;;;;;;15.15;11.27;;;10.10;99.90;;;;;;5056809;28;20570;-76
2022/03/21 05:02:01;;;;;;;13.75;12.27;;;10.00;99.90;;;;;;5074221;28;20179;-76
2022/03/21 05:04:27;;;;;;;13.30;10.73;;;10.00;99.90;;;;;;5071502;28;20189;-76
2022/03/21 05:06:54;;;;;;;14.48;12.13;;;10.00;99.90;;;;;;5037266;28;20192;-76
2022/03/21 05:09:20;;;;;;;16.15;12.95;;;9.90;99.90;;;;;;5071727;28;20527;-76
2022/03/21 05:11:46;;;;;;;17.42;12.48;;;9.90;99.90;;;;;;5071180;28;20169;-76
2022/03/21 05:14:11;;;;;;;16.23;12.60;;;9.90;99.90;;;;;;5036742;28;20172;-76
2022/03/21 05:16:38;;;;;;;13.97;12.57;;;9.90;99.90;;;;;;5053588;28;20187;-76
2022/03/21 05:19:04;;;;;;;13.98;12.57;;;9.90;99.90;;;;;;5053708;28;20218;-76
2022/03/21 05:21:30;;;;;;;15.45;12.05;;;9.90;99.90;;;;;;5071322;28;20537;-76
2022/03/21 05:32:10;;;;;;;14.52;13.18;;;9.90;99.90;;;;;;5071388;28;20230;-76
2022/03/21 05:37:21;;;;;;;15.00;11.82;;;10.00;99.90;;;;;;5073877;28;20202;-76
2022/03/21 05:40:47;;;;;;;15.97;12.67;;;10.00;99.90;;;;;;5065128;22;20215;-79
2022/03/21 05:42:41;;;;;;;14.60;12.20;;;9.90;99.90;;;;;;5031643;28;20595;-79
2022/03/21 05:45:09;;;;;;;14.25;12.85;;;9.90;99.90;;;;;;5053048;28;20173;-78
2022/03/21 05:48:50;;;;;;;13.98;12.00;;;9.90;99.90;;;;;;5070906;28;20728;-77
2022/03/21 05:50:20;;;;;;;13.48;11.98;;;9.90;99.90;;;;;;5073912;28;20695;-78
2022/03/21 05:52:46;;;;;;;13.87;11.67;;;9.90;99.90;;;;;;5075309;28;20251;-78
2022/03/21 05:55:12;;;;;;;14.77;12.37;;;9.90;99.90;;;;;;5074630;28;20217;-78
2022/03/21 05:57:41;;;;;;;13.90;12.23;;;9.90;99.90;;;;;;5074772;28;20169;-77
2022/03/21 06:00:20;;;;;;;15.73;13.32;;;9.90;99.90;;;;;;5074046;28;20601;-78
2022/03/21 06:02:48;;;;;;;14.02;12.23;;;9.90;99.90;;;;;;5056656;28;20191;-79
2022/03/21 06:05:14;;;;;;;16.90;12.77;;;9.90;99.90;;;;;;5039943;28;20198;-78
2022/03/21 06:07:40;;;;;;;15.30;13.18;;;9.90;99.90;;;;;;5074477;28;20200;-78
2022/03/21 06:10:06;;;;;;;13.77;12.20;;;9.90;99.90;;;;;;5056079;28;20187;-78
2022/03/21 06:12:32;;;;;;;13.13;11.48;;;10.00;99.90;;;;;;5074363;28;20970;-78
2022/03/21 06:14:59;;;;;;;14.10;12.13;;;10.00;99.90;;;;;;5056371;28;20164;-78
2022/03/21 06:17:25;;;;;;;13.68;12.30;;;10.00;99.90;;;;;;5074541;28;20172;-78
2022/03/21 06:19:50;;;;;;;14.00;12.40;;;10.10;99.90;;;;;;5073843;28;20258;-79
2022/03/21 06:22:16;;;;;;;14.33;12.77;;;10.20;99.90;;;;;;5072938;28;20597;-79
2022/03/21 06:24:42;;;;;;;12.80;11.50;;;10.20;99.90;;;;;;5039423;28;21171;-79
2022/03/21 06:27:07;;;;;;;16.20;12.23;;;10.30;99.90;;;;;;5073920;28;20710;-78
2022/03/21 06:29:33;;;;;;;13.97;12.37;;;10.30;99.90;;;;;;5056504;28;20664;-79
2022/03/21 06:31:59;;;;;;;12.60;11.30;;;10.40;99.90;;;;;;5073595;28;20742;-79
2022/03/21 06:34:25;;;;;;;15.10;11.80;;;10.50;99.90;;;;;;5056047;28;20558;-78
2022/03/21 06:36:50;;;;;;;15.30;13.30;;;10.50;99.90;;;;;;5074015;28;20161;-78
2022/03/21 06:39:16;;;;;;;14.80;13.30;;;10.50;99.90;;;;;;5073676;28;20195;-78
2022/03/21 06:41:43;;;;;;;18.40;14.00;;;10.60;99.90;;;;;;5055758;28;20195;-78
2022/03/21 06:44:08;;;;;;;14.55;11.55;;;10.70;99.90;;;;;;5073723;28;20168;-77
2022/03/21 06:46:34;;;;;;;14.37;11.80;;;10.70;99.90;;;;;;5066731;28;20514;-77
2022/03/21 06:49:00;;;;;;;13.90;12.50;;;10.80;99.90;;;;;;5053572;28;20189;-78
2022/03/21 06:51:27;;;;;;;13.00;11.60;;;10.80;99.90;;;;;;5053306;28;20260;-79
2022/03/21 06:53:53;;;;;;;14.50;12.32;;;10.90;99.90;;;;;;5035611;28;20177;-78
2022/03/21 06:56:18;;;;;;;14.53;11.70;;;11.00;99.90;;;;;;5053820;28;20504;-78
2022/03/21 06:58:44;;;;;;;15.20;11.83;;;11.10;99.90;;;;;;5034559;28;20234;-78
2022/03/21 07:01:10;;;;;;;14.90;12.60;;;11.20;99.90;;;;;;5051900;28;20264;-78
2022/03/21 07:03:36;;;;;;;16.25;12.75;;;11.30;99.60;;;;;;5053435;28;20173;-78
2022/03/21 07:06:03;;;;;;;15.25;12.25;;;11.40;98.90;;;;;;5040218;28;20232;-77
2022/03/21 07:08:30;;;;;;;14.27;11.53;;;11.40;98.60;;;;;;5035337;28;20203;-78
2022/03/21 07:10:55;;;;;;;12.50;11.20;;;11.50;98.60;;;;;;5061129;28;20582;-78
2022/03/21 07:13:22;;;;;;;16.53;12.83;;;11.60;98.50;;;;;;5064622;28;20263;-78
2022/03/21 07:15:52;;;;;;;12.32;11.00;;;11.60;97.40;;;;;;5073059;28;20632;-77
2022/03/21 07:18:17;;;;;;;12.43;11.13;;;11.70;97.90;;;;;;5070469;28;20279;-78
2022/03/21 07:20:44;;;;;;;12.43;11.13;;;11.80;97.90;;;;;;5042411;28;20777;-77
2022/03/21 07:23:10;;;;;;;13.40;12.00;;;11.90;97.40;;;;;;5041499;28;20531;-78
2022/03/21 07:25:36;;;;;;;13.80;12.40;;;12.00;96.10;;;;;;5035170;28;20173;-77
2022/03/21 07:28:02;;;;;;;15.03;11.43;;;12.00;95.30;;;;;;5015173;28;20580;-78
2022/03/21 07:30:28;;;;;;;13.40;11.85;;;12.10;95.40;;;;;;5022430;28;20760;-78
2022/03/21 07:32:54;;;;;;;14.00;12.40;;;12.30;95.60;;;;;;5050660;28;20243;-78
2022/03/21 07:35:20;;;;;;;14.30;11.80;;;12.60;95.80;;;;;;5052707;28;20161;-77
2022/03/21 07:37:50;;;;;;;16.50;11.47;;;13.00;96.20;;;;;;5034967;28;20188;-77
2022/03/21 07:40:17;;;;;;;13.68;12.30;;;13.50;96.50;;;;;;5051994;28;20618;-77
2022/03/21 07:42:45;;;;;;;15.07;11.57;;;13.90;93.90;;;;;;5039045;28;20169;-76
2022/03/21 07:47:58;;;;;;;15.50;12.77;;;14.90;93.80;;;;;;5052288;28;20568;-77
2022/03/21 07:50:25;;;;;;;11.57;10.30;;;15.50;94.50;;;;;;5034381;28;20595;-78
2022/03/21 07:52:53;;;;;;;14.50;12.03;;;16.10;93.40;;;;;;5034338;28;20552;-78
2022/03/21 07:55:19;;;;;;;12.33;10.73;;;16.40;90.60;;;;;;5051979;28;20564;-77
2022/03/21 07:57:45;;;;;;;12.73;11.43;;;16.90;91.20;;;;;;5048190;28;20587;-77
2022/03/21 08:00:13;;;;;;;11.93;10.53;;;17.20;87.50;;;;;;5042750;28;20710;-78
2022/03/21 08:02:42;;;;;;;12.27;11.07;;;17.50;83.60;;;;;;5050382;28;20598;-77
2022/03/21 08:05:08;;;;;;;15.57;12.37;;;17.80;79.90;;;;;;5046532;28;20619;-77
2022/03/21 08:07:35;;;;;;;12.97;11.57;;;18.20;77.60;;;;;;5051463;28;20666;-77
2022/03/21 08:10:03;;;;;;;13.60;12.20;;;18.40;72.60;;;;;;5024670;28;20608;-78
2022/03/21 08:12:30;;;;;;;13.33;11.77;;;18.50;72.20;;;;;;5024349;28;20758;-77
2022/03/21 08:14:56;;;;;;;11.77;10.73;;;18.50;68.60;;;;;;5033978;28;20583;-77
2022/03/21 08:17:22;;;;;;;13.37;12.07;;;18.60;69.50;;;;;;5051634;28;20643;-79
2022/03/21 08:19:48;;;;;;;14.13;11.47;;;18.80;65.60;;;;;;5054090;28;20205;-78
2022/03/21 08:22:15;;;;;;;12.67;11.37;;;19.00;65.20;;;;;;5051579;28;21579;-78
2022/03/21 08:24:41;;;;;;;11.63;10.63;;;19.30;69.20;;;;;;5048841;28;20660;-77
2022/03/21 08:27:14;;;;;;;12.80;11.60;;;19.80;69.70;;;;;;5050760;28;20681;-77
2022/03/21 08:29:40;;;;;;;12.27;11.07;;;20.00;62.70;;;;;;5049973;28;20623;-78
2022/03/21 08:32:07;;;;;;;12.13;10.20;;;20.30;64.00;;;;;;5050356;28;20671;-77
2022/03/21 08:34:32;;;;;;;12.67;11.40;;;20.70;65.30;;;;;;5033430;28;20575;-77
2022/03/21 08:36:58;;;;;;;12.07;10.67;;;20.90;64.10;;;;;;5051537;28;20556;-78
2022/03/21 08:39:24;;;;;;;9.60;8.70;;;21.40;66.00;;;;;;5032961;28;20259;-77
2022/03/21 08:41:49;;;;;;;11.90;10.80;;;21.90;66.00;;;;;;5034060;28;20642;-76
2022/03/21 08:44:19;;;;;;;10.67;9.60;;;22.30;63.20;;;;;;5031444;28;20220;-77
2022/03/21 08:46:45;;;;;;;12.90;11.10;;;22.60;62.30;;;;;;5031446;28;20200;-77
2022/03/21 08:49:33;;;;;;;10.93;9.87;;;23.00;61.00;;;;;;5011676;28;20718;-78
2022/03/21 08:52:01;;;;;;;10.43;9.53;;;23.30;60.90;;;;;;5058222;28;20645;-76
2022/03/21 08:54:27;;;;;;;9.43;8.13;;;23.60;59.00;;;;;;5068815;28;20579;-77
2022/03/21 08:56:53;;;;;;;12.47;10.57;;;23.90;59.80;;;;;;5071586;28;20598;-77
2022/03/21 08:59:19;;;;;;;11.23;10.23;;;24.40;59.50;;;;;;5059358;28;20650;-78
2022/03/21 09:01:45;;;;;;;11.13;10.13;;;24.70;57.00;;;;;;5051507;28;20611;-76
2022/03/21 09:04:12;;;;;;;14.50;11.83;;;24.70;56.70;;;;;;5033586;28;20181;-76
2022/03/21 09:06:38;;;;;;;10.23;9.23;;;24.50;50.20;;;;;;5052072;28;20197;-76
2022/03/21 09:09:04;;;;;;;11.17;10.00;;;24.40;53.20;;;;;;5034014;28;20584;-76
2022/03/21 09:11:31;;;;;;;10.87;9.93;;;24.50;53.60;;;;;;5052267;28;20824;-76
2022/03/21 09:13:57;;;;;;;11.17;9.97;;;24.70;54.40;;;;;;5051926;28;20559;-76
2022/03/21 09:16:25;;;;;;;11.20;10.20;;;25.00;54.80;;;;;;5052217;28;20980;-77
2022/03/21 09:18:51;;;;;;;10.67;9.77;;;25.20;53.30;;;;;;5051016;28;20746;-77
2022/03/21 09:21:17;;;;;;;11.70;10.53;;;25.20;51.10;;;;;;5049014;28;20608;-77
2022/03/21 09:23:42;;;;;;;11.43;10.33;;;24.90;50.10;;;;;;5034225;28;20204;-78
2022/03/21 09:26:10;;;;;;;13.10;11.70;;;24.70;47.90;;;;;;5054838;28;21097;-78
2022/03/21 09:28:37;;;;;;;19.43;10.70;;;24.40;47.20;;;;;;5054789;28;20249;-78
2022/03/21 09:31:06;;;;;;;12.03;10.17;;;24.40;48.60;;;;;;5054332;28;20580;-77
2022/03/21 09:33:32;;;;;;;10.83;9.73;;;24.60;49.30;;;;;;5060427;28;20567;-77
2022/03/21 09:35:58;;;;;;;10.73;9.80;;;24.80;50.40;;;;;;5054786;28;20920;-77
2022/03/21 09:38:24;;;;;;;11.40;10.20;;;25.30;51.30;;;;;;5029320;28;20595;-77
2022/03/21 09:40:49;;;;;;;13.53;10.10;;;25.50;51.20;;;;;;5034323;28;20730;-77
2022/03/21 09:43:15;;;;;;;10.60;9.30;;;25.70;49.40;;;;;;5037019;28;20188;-77
2022/03/21 09:45:42;;;;;;;10.23;9.10;;;25.80;49.90;;;;;;5054811;28;20177;-77
2022/03/21 09:48:12;;;;;;;11.17;10.17;;;25.90;49.00;;;;;;5054306;28;20567;-77
2022/03/21 09:50:44;;;;;;;10.90;9.90;;;25.90;48.10;;;;;;5054183;28;20595;-78
2022/03/21 09:53:13;;;;;;;12.03;10.83;;;26.10;49.50;;;;;;5020778;28;20568;-77
2022/03/21 09:55:40;;;;;;;10.97;9.97;;;26.00;47.30;;;;;;5036682;28;20610;-77
2022/03/21 09:58:09;;;;;;;10.23;9.33;;;25.90;47.50;;;;;;5035099;28;20604;-77
2022/03/21 10:00:36;;;;;;;12.07;10.30;;;25.90;48.30;;;;;;5036219;28;20642;-77
2022/03/21 10:03:03;;;;;;;11.67;10.53;;;25.90;47.30;;;;;;5054556;28;20610;-77
2022/03/21 10:05:41;;;;;;;17.70;9.83;;;25.90;46.80;;;;;;5047962;28;20742;-77
2022/03/21 10:08:24;;;;;;;12.80;10.80;;;25.90;46.60;;;;;;5040968;28;20591;-77
2022/03/21 10:11:04;;;;;;;11.43;10.33;;;26.20;46.90;;;;;;5039432;28;21139;-77
2022/03/21 10:13:35;;;;;;;10.20;8.27;;;26.50;46.80;;;;;;5053719;28;20571;-78
2022/03/21 10:16:12;;;;;;;13.07;11.57;;;26.70;47.90;;;;;;5035890;28;20584;-78
2022/03/21 10:19:00;;;;;;;10.97;9.73;;;26.50;44.60;;;;;;5035440;28;20915;-78
2022/03/21 10:21:28;;;;;;;11.47;9.80;;;26.70;46.50;;;;;;5053629;28;20642;-77
2022/03/21 10:24:07;;;;;;;13.07;11.80;;;26.80;45.20;;;;;;5053365;28;21157;-77
2022/03/21 10:26:41;;;;;;;12.37;11.17;;;26.80;44.00;;;;;;5035409;28;20633;-76
2022/03/21 10:29:11;;;;;;;11.97;10.87;;;26.60;42.50;;;;;;5052175;28;20610;-78
2022/03/21 10:31:46;;;;;;;11.53;10.47;;;26.50;44.50;;;;;;5053380;28;21127;-78
2022/03/21 10:34:18;;;;;;;10.23;9.23;;;26.80;45.30;;;;;;5053311;28;20674;-77
2022/03/21 10:37:03;;;;;;;11.90;10.60;;;26.90;45.20;;;;;;5052332;28;20945;-77
2022/03/21 10:39:32;;;;;;;10.70;9.70;;;26.70;44.00;;;;;;5018546;28;20628;-77
2022/03/21 10:42:05;;;;;;;10.80;9.87;;;26.80;45.30;;;;;;5053122;28;20629;-77
2022/03/21 10:44:32;;;;;;;11.97;10.80;;;26.70;44.00;;;;;;5053487;28;20575;-77
2022/03/21 10:47:00;;;;;;;13.30;11.87;;;26.50;44.10;;;;;;5054159;28;20623;-78
2022/03/21 10:49:38;;;;;;;11.70;10.60;;;26.00;41.80;;;;;;5053868;28;20619;-77
2022/03/21 10:52:06;;;;;;;12.33;11.13;;;25.50;42.70;;;;;;5053173;28;20564;-77
2022/03/21 10:54:39;;;;;;;12.97;11.67;;;25.20;43.20;;;;;;5051523;28;20591;-76
2022/03/21 10:57:06;;;;;;;11.87;10.67;;;24.90;42.80;;;;;;5052902;28;20682;-77
2022/03/21 10:59:33;;;;;;;12.13;10.97;;;24.60;43.40;;;;;;5035432;28;20615;-77
2022/03/21 11:02:13;;;;;;;13.90;11.60;;;24.60;43.50;;;;;;5053983;28;21141;-77
2022/03/21 11:04:41;;;;;;;12.63;11.53;;;24.50;42.80;;;;;;5053780;28;20568;-77
2022/03/21 11:07:11;;;;;;;11.90;10.80;;;24.30;42.50;;;;;;5060436;28;20655;-77
2022/03/21 11:09:40;;;;;;;12.70;11.30;;;24.30;44.10;;;;;;5047309;28;20669;-77
2022/03/21 11:12:10;;;;;;;12.17;11.10;;;24.30;43.50;;;;;;5050099;28;20723;-77
2022/03/21 11:14:40;;;;;;;10.57;9.60;;;24.20;43.90;;;;;;5071534;28;20583;-77
2022/03/21 11:17:07;;;;;;;12.93;11.00;;;24.30;44.60;;;;;;5047816;28;20595;-75
2022/03/21 11:19:33;;;;;;;10.00;9.00;;;24.40;44.70;;;;;;5060140;28;20619;-76
2022/03/21 11:22:00;;;;;;;10.03;9.03;;;24.40;45.00;;;;;;5059272;28;20591;-76
2022/03/21 11:24:29;;;;;;;12.23;11.00;;;24.70;46.10;;;;;;5061278;28;20977;-75
2022/03/21 11:27:19;;;;;;;10.53;9.63;;;24.70;44.40;;;;;;5042497;28;20635;-75
2022/03/21 11:30:07;;;;;;;10.63;9.53;;;24.50;44.30;;;;;;5054967;28;20699;-75
2022/03/21 11:32:44;;;;;;;10.43;9.43;;;24.40;44.70;;;;;;5021053;28;20559;-77
2022/03/21 11:35:15;;;;;;;9.10;8.20;;;24.40;44.90;;;;;;5052932;28;20563;-77
2022/03/21 11:37:42;;;;;;;11.37;10.27;;;24.50;45.80;;;;;;5052604;28;20920;-76
2022/03/21 11:40:33;;;;;;;11.80;9.13;;;24.60;45.40;;;;;;5034658;28;20627;-77
2022/03/21 11:43:17;;;;;;;11.30;10.13;;;24.60;45.40;;;;;;5032108;28;20577;-77
2022/03/21 11:45:48;;;;;;;10.07;9.17;;;24.60;45.40;;;;;;5017886;28;20579;-77
2022/03/21 11:48:22;;;;;;;10.87;9.77;;;24.70;45.90;;;;;;5051805;28;20603;-75
2022/03/21 11:50:50;;;;;;;12.13;9.50;;;24.90;46.30;;;;;;5051636;28;20981;-77
2022/03/21 11:53:26;;;;;;;9.40;8.37;;;25.00;46.40;;;;;;5034632;28;20599;-77
2022/03/21 11:55:52;;;;;;;10.70;9.47;;;25.10;46.70;;;;;;5052320;28;20560;-77
2022/03/21 11:58:41;;;;;;;10.30;9.30;;;25.10;45.80;;;;;;5033361;28;20580;-76
2022/03/21 12:01:08;;;;;;;12.47;9.30;;;25.00;45.50;;;;;;5053416;28;20584;-77
2022/03/21 12:03:36;;;;;;;9.73;8.47;;;25.00;45.60;;;;;;5050983;28;20586;-76
2022/03/21 12:06:24;;;;;;;9.37;8.47;;;24.90;45.70;;;;;;5032423;28;20615;-77
2022/03/21 12:08:52;;;;;;;11.50;10.10;;;24.80;43.50;;;;;;5049554;28;20597;-76
2022/03/21 12:11:37;;;;;;;10.00;9.03;;;24.80;45.50;;;;;;5031209;28;20580;-77
2022/03/21 12:14:21;;;;;;;8.77;7.87;;;24.70;45.60;;;;;;5050052;28;20599;-77
2022/03/21 12:17:08;;;;;;;8.23;7.50;;;24.60;44.70;;;;;;5031520;28;21103;-77
2022/03/21 12:19:50;;;;;;;7.93;7.07;;;24.50;46.00;;;;;;5050142;28;20619;-77
2022/03/21 12:22:34;;;;;;;7.53;6.57;;;24.50;46.60;;;;;;5050742;28;20576;-77
2022/03/21 12:25:18;;;;;;;7.60;6.90;;;24.50;46.50;;;;;;5017230;28;20595;-77
2022/03/21 12:27:46;;;;;;;7.63;6.77;;;24.40;45.80;;;;;;5050843;28;21245;-77
2022/03/21 12:30:26;;;;;;;7.83;6.20;;;24.30;46.40;;;;;;5048278;28;20638;-77
2022/03/21 12:33:12;;;;;;;8.13;7.00;;;24.00;46.00;;;;;;5042191;28;20586;-77
2022/03/21 12:35:40;;;;;;;5.67;5.00;;;23.90;46.20;;;;;;5047892;28;20683;-77
2022/03/21 12:38:14;;;;;;;8.10;6.87;;;23.90;46.50;;;;;;5034534;28;20668;-75
2022/03/21 12:41:00;;;;;;;5.77;5.07;;;23.80;46.80;;;;;;5028575;28;20627;-81
2022/03/21 12:43:33;;;;;;;8.57;6.00;;;23.80;47.20;;;;;;5047275;28;20591;-81
2022/03/21 12:46:11;;;;;;;7.00;5.57;;;23.80;46.90;;;;;;5049341;28;20709;-80
2022/03/21 12:48:40;;;;;;;6.50;5.90;;;23.70;47.20;;;;;;5049482;28;20929;-80
2022/03/21 12:51:07;;;;;;;7.27;5.73;;;23.70;47.30;;;;;;5052157;28;20587;-80
2022/03/21 12:53:44;;;;;;;7.00;6.30;;;23.70;47.20;;;;;;5062886;28;20583;-80
2022/03/21 12:56:13;;;;;;;5.30;4.50;;;23.50;46.90;;;;;;5045071;28;21018;-80